Terminal Aerodrome Forecast
Issued by NWS

Home | Current Version | Previous Version | Text Only | Print | Product List | Glossary On
Versions: 1 2 3 4 5 6 7 8 9 10 11 12 13 14 15 16 17 18 19 20 21 22 23 24 25 26 27
000
FTUS43 KMKX 240527 AAA
TAFUES
TAF AMD
KUES 240527Z 2405/2506 06004KT 1/4SM FG VCSH OVC003
     FM240700 04004KT 1/2SM -SHRA FG OVC003
     FM240900 03004KT 3/4SM BR VCSH OVC003
     FM241400 03008KT P6SM VCSH OVC008
     FM242100 02011KT P6SM OVC035
     FM250200 02008KT P6SM OVC015=

USA.gov is the U.S. government's official web portal to all federal, state and local government web resources and services.